sensor_id;sensor_type;location;lat;lon;timestamp;temperature;humidity
35313;DHT22;21425;50.454;30.466;2023-04-30T00:02:07;9.00;88.40
35313;DHT22;21425;50.454;30.466;2023-04-30T00:04:33;7.90;89.30
35313;DHT22;21425;50.454;30.466;2023-04-30T00:06:59;8.70;90.90
35313;DHT22;21425;50.454;30.466;2023-04-30T00:09:25;10.20;91.70
35313;DHT22;21425;50.454;30.466;2023-04-30T00:11:50;8.70;91.90
35313;DHT22;21425;50.454;30.466;2023-04-30T00:14:16;8.60;93.20
35313;DHT22;21425;50.454;30.466;2023-04-30T00:16:41;8.30;93.10
35313;DHT22;21425;50.454;30.466;2023-04-30T00:19:07;8.80;96.40
35313;DHT22;21425;50.454;30.466;2023-04-30T00:21:33;6.10;96.20
35313;DHT22;21425;50.454;30.466;2023-04-30T00:23:58;6.10;96.90
35313;DHT22;21425;50.454;30.466;2023-04-30T00:26:25;6.10;96.50
35313;DHT22;21425;50.454;30.466;2023-04-30T00:28:50;8.20;96.90
35313;DHT22;21425;50.454;30.466;2023-04-30T00:31:16;7.10;97.30
35313;DHT22;21425;50.454;30.466;2023-04-30T00:33:41;8.30;97.20
35313;DHT22;21425;50.454;30.466;2023-04-30T00:36:07;8.70;97.90
35313;DHT22;21425;50.454;30.466;2023-04-30T00:38:32;10.10;98.20
35313;DHT22;21425;50.454;30.466;2023-04-30T00:40:58;8.90;97.80
35313;DHT22;21425;50.454;30.466;2023-04-30T00:43:23;7.10;97.50
35313;DHT22;21425;50.454;30.466;2023-04-30T00:45:49;7.10;96.90
35313;DHT22;21425;50.454;30.466;2023-04-30T00:48:14;6.70;97.40
35313;DHT22;21425;50.454;30.466;2023-04-30T00:50:40;6.60;96.90
35313;DHT22;21425;50.454;30.466;2023-04-30T00:53:08;6.30;98.30
35313;DHT22;21425;50.454;30.466;2023-04-30T00:55:33;6.50;97.30
35313;DHT22;21425;50.454;30.466;2023-04-30T00:57:59;6.80;96.10
35313;DHT22;21425;50.454;30.466;2023-04-30T01:00:25;6.40;95.80
35313;DHT22;21425;50.454;30.466;2023-04-30T01:02:51;6.30;96.70
35313;DHT22;21425;50.454;30.466;2023-04-30T01:05:17;6.30;97.80
35313;DHT22;21425;50.454;30.466;2023-04-30T01:07:42;8.70;99.90
35313;DHT22;21425;50.454;30.466;2023-04-30T01:10:09;8.80;99.90
35313;DHT22;21425;50.454;30.466;2023-04-30T01:17:31;8.80;99.90
35313;DHT22;21425;50.454;30.466;2023-04-30T01:19:58;8.80;99.90
35313;DHT22;21425;50.454;30.466;2023-04-30T01:24:56;6.20;99.90
35313;DHT22;21425;50.454;30.466;2023-04-30T01:27:31;7.10;99.90
35313;DHT22;21425;50.454;30.466;2023-04-30T01:30:03;6.30;99.90
35313;DHT22;21425;50.454;30.466;2023-04-30T01:32:29;8.50;99.90
35313;DHT22;21425;50.454;30.466;2023-04-30T01:34:54;6.90;99.90
35313;DHT22;21425;50.454;30.466;2023-04-30T01:37:22;7.20;99.90
35313;DHT22;21425;50.454;30.466;2023-04-30T01:39:56;7.10;99.90
35313;DHT22;21425;50.454;30.466;2023-04-30T01:42:29;7.30;99.90
35313;DHT22;21425;50.454;30.466;2023-04-30T01:52:31;6.10;99.90
35313;DHT22;21425;50.454;30.466;2023-04-30T01:55:00;7.00;99.90
35313;DHT22;21425;50.454;30.466;2023-04-30T01:57:34;8.90;99.90
35313;DHT22;21425;50.454;30.466;2023-04-30T02:00:01;6.80;99.90
35313;DHT22;21425;50.454;30.466;2023-04-30T02:02:28;7.00;99.90
35313;DHT22;21425;50.454;30.466;2023-04-30T02:04:54;8.00;99.90
35313;DHT22;21425;50.454;30.466;2023-04-30T02:07:24;7.20;99.90
35313;DHT22;21425;50.454;30.466;2023-04-30T02:09:53;9.20;99.90
35313;DHT22;21425;50.454;30.466;2023-04-30T02:12:19;6.20;99.90
35313;DHT22;21425;50.454;30.466;2023-04-30T02:14:44;7.30;99.90
35313;DHT22;21425;50.454;30.466;2023-04-30T02:17:10;7.80;99.90
35313;DHT22;21425;50.454;30.466;2023-04-30T02:19:36;7.60;99.90
35313;DHT22;21425;50.454;30.466;2023-04-30T02:22:01;7.60;99.90
35313;DHT22;21425;50.454;30.466;2023-04-30T02:24:26;7.30;99.90
35313;DHT22;21425;50.454;30.466;2023-04-30T02:26:52;7.40;99.90
35313;DHT22;21425;50.454;30.466;2023-04-30T02:29:17;7.50;99.90
35313;DHT22;21425;50.454;30.466;2023-04-30T02:31:43;7.70;99.90
35313;DHT22;21425;50.454;30.466;2023-04-30T02:34:08;6.90;99.90
35313;DHT22;21425;50.454;30.466;2023-04-30T02:36:34;7.90;99.90
35313;DHT22;21425;50.454;30.466;2023-04-30T02:39:01;7.30;99.90
35313;DHT22;21425;50.454;30.466;2023-04-30T02:41:26;6.30;99.90
35313;DHT22;21425;50.454;30.466;2023-04-30T02:43:52;5.80;99.90
35313;DHT22;21425;50.454;30.466;2023-04-30T02:46:17;7.50;99.90
35313;DHT22;21425;50.454;30.466;2023-04-30T02:48:43;6.90;99.90
35313;DHT22;21425;50.454;30.466;2023-04-30T02:51:08;6.80;99.90
35313;DHT22;21425;50.454;30.466;2023-04-30T02:53:34;7.00;99.90
35313;DHT22;21425;50.454;30.466;2023-04-30T02:55:59;6.90;99.90
35313;DHT22;21425;50.454;30.466;2023-04-30T02:58:25;7.60;99.90
35313;DHT22;21425;50.454;30.466;2023-04-30T03:00:51;7.00;99.90
35313;DHT22;21425;50.454;30.466;2023-04-30T03:03:16;6.80;99.90
35313;DHT22;21425;50.454;30.466;2023-04-30T03:05:42;6.90;99.90
35313;DHT22;21425;50.454;30.466;2023-04-30T03:10:33;7.40;99.90
35313;DHT22;21425;50.454;30.466;2023-04-30T03:12:58;7.10;99.90
35313;DHT22;21425;50.454;30.466;2023-04-30T03:15:24;7.50;99.90
35313;DHT22;21425;50.454;30.466;2023-04-30T03:17:49;7.00;99.90
35313;DHT22;21425;50.454;30.466;2023-04-30T03:20:15;7.60;99.90
35313;DHT22;21425;50.454;30.466;2023-04-30T03:22:41;7.00;99.90
35313;DHT22;21425;50.454;30.466;2023-04-30T03:25:06;7.40;99.90
35313;DHT22;21425;50.454;30.466;2023-04-30T03:27:32;5.90;99.90
35313;DHT22;21425;50.454;30.466;2023-04-30T03:29:57;7.30;99.90
35313;DHT22;21425;50.454;30.466;2023-04-30T03:32:23;7.60;99.90
35313;DHT22;21425;50.454;30.466;2023-04-30T03:34:48;7.60;99.90
35313;DHT22;21425;50.454;30.466;2023-04-30T03:39:40;7.30;99.90
35313;DHT22;21425;50.454;30.466;2023-04-30T03:42:06;7.70;99.90
35313;DHT22;21425;50.454;30.466;2023-04-30T03:44:31;7.60;99.90
35313;DHT22;21425;50.454;30.466;2023-04-30T03:46:57;7.30;99.90
35313;DHT22;21425;50.454;30.466;2023-04-30T03:49:22;6.80;99.90
35313;DHT22;21425;50.454;30.466;2023-04-30T03:51:48;6.70;99.90
35313;DHT22;21425;50.454;30.466;2023-04-30T03:54:13;5.90;99.90
35313;DHT22;21425;50.454;30.466;2023-04-30T03:56:39;6.40;99.90
35313;DHT22;21425;50.454;30.466;2023-04-30T03:59:05;5.80;99.90
35313;DHT22;21425;50.454;30.466;2023-04-30T04:01:30;7.00;99.90
35313;DHT22;21425;50.454;30.466;2023-04-30T04:03:56;6.30;99.90
35313;DHT22;21425;50.454;30.466;2023-04-30T04:06:22;6.20;99.90
35313;DHT22;21425;50.454;30.466;2023-04-30T04:08:47;6.30;99.90
35313;DHT22;21425;50.454;30.466;2023-04-30T04:11:13;7.00;99.90
35313;DHT22;21425;50.454;30.466;2023-04-30T04:13:38;6.40;99.90
35313;DHT22;21425;50.454;30.466;2023-04-30T04:16:04;7.50;99.90
35313;DHT22;21425;50.454;30.466;2023-04-30T04:18:29;6.90;99.90
35313;DHT22;21425;50.454;30.466;2023-04-30T04:20:55;10.10;99.90
35313;DHT22;21425;50.454;30.466;2023-04-30T04:23:21;7.10;99.90
35313;DHT22;21425;50.454;30.466;2023-04-30T04:25:46;6.00;99.90
35313;DHT22;21425;50.454;30.466;2023-04-30T04:28:14;7.20;99.90
35313;DHT22;21425;50.454;30.466;2023-04-30T04:30:40;6.70;99.90
35313;DHT22;21425;50.454;30.466;2023-04-30T04:33:05;6.90;99.90
35313;DHT22;21425;50.454;30.466;2023-04-30T04:35:31;10.20;99.90
35313;DHT22;21425;50.454;30.466;2023-04-30T04:37:56;5.20;99.90
35313;DHT22;21425;50.454;30.466;2023-04-30T04:40:23;10.30;99.90
35313;DHT22;21425;50.454;30.466;2023-04-30T04:42:48;9.90;99.90
35313;DHT22;21425;50.454;30.466;2023-04-30T04:45:14;8.90;99.90
35313;DHT22;21425;50.454;30.466;2023-04-30T04:47:40;9.30;99.90
35313;DHT22;21425;50.454;30.466;2023-04-30T04:50:05;5.80;99.90
35313;DHT22;21425;50.454;30.466;2023-04-30T04:52:31;9.50;99.90
35313;DHT22;21425;50.454;30.466;2023-04-30T04:54:57;6.20;99.90
35313;DHT22;21425;50.454;30.466;2023-04-30T04:57:23;9.20;99.90
35313;DHT22;21425;50.454;30.466;2023-04-30T04:59:48;9.50;99.90
35313;DHT22;21425;50.454;30.466;2023-04-30T05:02:14;10.30;99.90
35313;DHT22;21425;50.454;30.466;2023-04-30T05:04:39;5.30;99.90
35313;DHT22;21425;50.454;30.466;2023-04-30T05:07:06;8.50;99.90
35313;DHT22;21425;50.454;30.466;2023-04-30T05:09:32;8.60;99.90
35313;DHT22;21425;50.454;30.466;2023-04-30T05:11:58;5.50;99.90
35313;DHT22;21425;50.454;30.466;2023-04-30T05:14:23;8.80;99.90
35313;DHT22;21425;50.454;30.466;2023-04-30T05:16:49;8.70;99.90
35313;DHT22;21425;50.454;30.466;2023-04-30T05:19:14;8.10;99.90
35313;DHT22;21425;50.454;30.466;2023-04-30T05:21:40;10.10;99.90
35313;DHT22;21425;50.454;30.466;2023-04-30T05:24:06;8.50;99.90
35313;DHT22;21425;50.454;30.466;2023-04-30T05:26:31;9.70;99.90
35313;DHT22;21425;50.454;30.466;2023-04-30T05:28:57;9.40;99.90
35313;DHT22;21425;50.454;30.466;2023-04-30T05:31:22;8.00;99.90
35313;DHT22;21425;50.454;30.466;2023-04-30T05:33:48;9.10;99.90
35313;DHT22;21425;50.454;30.466;2023-04-30T05:36:14;10.00;99.90
35313;DHT22;21425;50.454;30.466;2023-04-30T05:38:39;9.10;99.90
35313;DHT22;21425;50.454;30.466;2023-04-30T05:41:05;8.80;99.90
35313;DHT22;21425;50.454;30.466;2023-04-30T05:43:30;8.70;99.90
35313;DHT22;21425;50.454;30.466;2023-04-30T05:45:56;10.40;99.90
35313;DHT22;21425;50.454;30.466;2023-04-30T05:48:22;9.90;99.90
35313;DHT22;21425;50.454;30.466;2023-04-30T05:50:47;8.30;99.90
35313;DHT22;21425;50.454;30.466;2023-04-30T05:53:13;8.60;99.90
35313;DHT22;21425;50.454;30.466;2023-04-30T05:58:04;9.00;99.90
35313;DHT22;21425;50.454;30.466;2023-04-30T06:00:30;10.10;99.90
35313;DHT22;21425;50.454;30.466;2023-04-30T06:02:56;9.90;99.90
35313;DHT22;21425;50.454;30.466;2023-04-30T06:05:21;8.60;99.90
35313;DHT22;21425;50.454;30.466;2023-04-30T06:07:46;9.70;99.90
35313;DHT22;21425;50.454;30.466;2023-04-30T06:10:12;12.30;99.90
35313;DHT22;21425;50.454;30.466;2023-04-30T06:12:38;12.60;99.90
35313;DHT22;21425;50.454;30.466;2023-04-30T06:15:04;8.60;99.90
35313;DHT22;21425;50.454;30.466;2023-04-30T06:17:30;9.90;99.90
35313;DHT22;21425;50.454;30.466;2023-04-30T06:19:56;9.30;99.90
35313;DHT22;21425;50.454;30.466;2023-04-30T06:22:25;10.10;99.90
35313;DHT22;21425;50.454;30.466;2023-04-30T06:24:50;12.40;99.90
35313;DHT22;21425;50.454;30.466;2023-04-30T06:27:15;12.60;99.90
35313;DHT22;21425;50.454;30.466;2023-04-30T06:29:41;12.70;97.30
35313;DHT22;21425;50.454;30.466;2023-04-30T06:32:06;9.00;96.60
35313;DHT22;21425;50.454;30.466;2023-04-30T06:34:32;9.20;94.30
35313;DHT22;21425;50.454;30.466;2023-04-30T06:36:57;13.80;95.10
35313;DHT22;21425;50.454;30.466;2023-04-30T06:41:49;9.60;91.20
35313;DHT22;21425;50.454;30.466;2023-04-30T06:44:14;10.10;91.60
35313;DHT22;21425;50.454;30.466;2023-04-30T06:46:40;8.70;85.90
35313;DHT22;21425;50.454;30.466;2023-04-30T06:49:06;9.80;87.30
35313;DHT22;21425;50.454;30.466;2023-04-30T06:51:31;8.60;81.30
35313;DHT22;21425;50.454;30.466;2023-04-30T06:53:57;12.00;76.30
35313;DHT22;21425;50.454;30.466;2023-04-30T06:56:22;10.10;72.80
35313;DHT22;21425;50.454;30.466;2023-04-30T06:58:49;9.40;72.30
35313;DHT22;21425;50.454;30.466;2023-04-30T07:01:14;9.90;73.30
35313;DHT22;21425;50.454;30.466;2023-04-30T07:03:40;8.70;77.00
35313;DHT22;21425;50.454;30.466;2023-04-30T07:06:05;9.80;78.00
35313;DHT22;21425;50.454;30.466;2023-04-30T07:08:31;13.40;78.10
35313;DHT22;21425;50.454;30.466;2023-04-30T07:10:56;9.60;77.30
35313;DHT22;21425;50.454;30.466;2023-04-30T07:20:40;8.70;69.90
35313;DHT22;21425;50.454;30.466;2023-04-30T07:25:31;12.30;70.60
35313;DHT22;21425;50.454;30.466;2023-04-30T07:30:23;8.70;68.90
35313;DHT22;21425;50.454;30.466;2023-04-30T07:32:48;8.60;68.00
35313;DHT22;21425;50.454;30.466;2023-04-30T07:35:14;13.20;70.00
35313;DHT22;21425;50.454;30.466;2023-04-30T07:40:08;13.30;68.20
35313;DHT22;21425;50.454;30.466;2023-04-30T07:47:29;12.20;67.70
35313;DHT22;21425;50.454;30.466;2023-04-30T07:52:21;11.70;64.70
35313;DHT22;21425;50.454;30.466;2023-04-30T07:54:46;12.30;65.90
35313;DHT22;21425;50.454;30.466;2023-04-30T08:06:56;12.00;66.10
35313;DHT22;21425;50.454;30.466;2023-04-30T08:19:05;13.00;65.20
35313;DHT22;21425;50.454;30.466;2023-04-30T08:23:57;12.10;66.00
35313;DHT22;21425;50.454;30.466;2023-04-30T08:26:23;12.80;65.00
35313;DHT22;21425;50.454;30.466;2023-04-30T08:31:15;13.00;64.70
35313;DHT22;21425;50.454;30.466;2023-04-30T08:48:16;12.80;60.60
35313;DHT22;21425;50.454;30.466;2023-04-30T09:05:21;12.00;59.40
35313;DHT22;21425;50.454;30.466;2023-04-30T11:18:50;12.70;59.20
35313;DHT22;21425;50.454;30.466;2023-04-30T11:40:44;11.20;55.90
35313;DHT22;21425;50.454;30.466;2023-04-30T12:39:13;12.10;53.90
35313;DHT22;21425;50.454;30.466;2023-04-30T13:37:44;11.30;54.50
35313;DHT22;21425;50.454;30.466;2023-04-30T13:42:36;13.10;55.90
35313;DHT22;21425;50.454;30.466;2023-04-30T13:54:46;11.30;57.50
35313;DHT22;21425;50.454;30.466;2023-04-30T13:57:11;12.40;57.40
35313;DHT22;21425;50.454;30.466;2023-04-30T14:14:13;11.40;53.40
35313;DHT22;21425;50.454;30.466;2023-04-30T15:07:45;15.60;53.50
35313;DHT22;21425;50.454;30.466;2023-04-30T15:12:37;13.20;51.70
35313;DHT22;21425;50.454;30.466;2023-04-30T15:15:03;11.30;50.60
35313;DHT22;21425;50.454;30.466;2023-04-30T15:19:56;11.50;52.10
35313;DHT22;21425;50.454;30.466;2023-04-30T15:24:51;11.70;52.60
35313;DHT22;21425;50.454;30.466;2023-04-30T15:27:16;15.50;56.00
35313;DHT22;21425;50.454;30.466;2023-04-30T15:32:10;11.10;53.70
35313;DHT22;21425;50.454;30.466;2023-04-30T15:39:28;11.20;54.90
35313;DHT22;21425;50.454;30.466;2023-04-30T15:41:53;12.90;55.70
35313;DHT22;21425;50.454;30.466;2023-04-30T15:44:19;15.00;56.10
35313;DHT22;21425;50.454;30.466;2023-04-30T15:46:44;12.70;54.80
35313;DHT22;21425;50.454;30.466;2023-04-30T15:49:10;12.60;54.80
35313;DHT22;21425;50.454;30.466;2023-04-30T15:51:36;11.50;54.90
35313;DHT22;21425;50.454;30.466;2023-04-30T15:54:02;12.20;55.30
35313;DHT22;21425;50.454;30.466;2023-04-30T15:58:56;11.90;54.70
35313;DHT22;21425;50.454;30.466;2023-04-30T16:01:22;12.60;55.70
35313;DHT22;21425;50.454;30.466;2023-04-30T16:03:47;15.60;56.40
35313;DHT22;21425;50.454;30.466;2023-04-30T16:06:13;11.90;54.80
35313;DHT22;21425;50.454;30.466;2023-04-30T16:08:40;11.30;55.10
35313;DHT22;21425;50.454;30.466;2023-04-30T16:11:05;11.30;55.80
35313;DHT22;21425;50.454;30.466;2023-04-30T16:15:58;11.90;57.00
35313;DHT22;21425;50.454;30.466;2023-04-30T16:18:24;12.20;58.00
35313;DHT22;21425;50.454;30.466;2023-04-30T16:20:49;12.20;58.00
35313;DHT22;21425;50.454;30.466;2023-04-30T16:30:33;11.90;58.30
35313;DHT22;21425;50.454;30.466;2023-04-30T17:41:08;12.90;64.50
35313;DHT22;21425;50.454;30.466;2023-04-30T18:07:59;12.90;68.10
35313;DHT22;21425;50.454;30.466;2023-04-30T18:10:27;12.70;70.00
35313;DHT22;21425;50.454;30.466;2023-04-30T18:12:53;12.60;69.90
35313;DHT22;21425;50.454;30.466;2023-04-30T18:15:18;13.20;70.30
35313;DHT22;21425;50.454;30.466;2023-04-30T18:22:36;13.70;70.60
35313;DHT22;21425;50.454;30.466;2023-04-30T18:27:33;8.10;67.30
35313;DHT22;21425;50.454;30.466;2023-04-30T18:29:59;12.90;70.40
35313;DHT22;21425;50.454;30.466;2023-04-30T18:32:24;13.10;70.80
35313;DHT22;21425;50.454;30.466;2023-04-30T18:34:50;8.20;68.10
35313;DHT22;21425;50.454;30.466;2023-04-30T18:37:15;8.30;68.40
35313;DHT22;21425;50.454;30.466;2023-04-30T18:39:42;9.30;69.50
35313;DHT22;21425;50.454;30.466;2023-04-30T18:42:07;9.30;69.50
35313;DHT22;21425;50.454;30.466;2023-04-30T18:44:33;8.30;69.30
35313;DHT22;21425;50.454;30.466;2023-04-30T18:46:59;8.50;69.90
35313;DHT22;21425;50.454;30.466;2023-04-30T18:49:24;13.50;73.20
35313;DHT22;21425;50.454;30.466;2023-04-30T18:51:50;13.00;72.60
35313;DHT22;21425;50.454;30.466;2023-04-30T18:54:15;8.50;70.10
35313;DHT22;21425;50.454;30.466;2023-04-30T18:56:42;8.50;70.30
35313;DHT22;21425;50.454;30.466;2023-04-30T18:59:08;10.00;71.20
35313;DHT22;21425;50.454;30.466;2023-04-30T19:01:34;9.70;70.40
35313;DHT22;21425;50.454;30.466;2023-04-30T19:06:27;9.10;71.20
35313;DHT22;21425;50.454;30.466;2023-04-30T19:11:20;13.80;74.30
35313;DHT22;21425;50.454;30.466;2023-04-30T19:18:38;10.20;72.80
35313;DHT22;21425;50.454;30.466;2023-04-30T19:21:03;12.80;74.90
35313;DHT22;21425;50.454;30.466;2023-04-30T19:23:30;10.70;74.20
35313;DHT22;21425;50.454;30.466;2023-04-30T19:25:57;8.50;73.00
35313;DHT22;21425;50.454;30.466;2023-04-30T19:28:22;9.50;74.10
35313;DHT22;21425;50.454;30.466;2023-04-30T19:33:14;10.40;75.10
35313;DHT22;21425;50.454;30.466;2023-04-30T19:35:39;10.30;75.90
35313;DHT22;21425;50.454;30.466;2023-04-30T19:38:04;12.50;77.60
35313;DHT22;21425;50.454;30.466;2023-04-30T19:40:31;9.20;75.60
35313;DHT22;21425;50.454;30.466;2023-04-30T19:42:57;9.00;76.60
35313;DHT22;21425;50.454;30.466;2023-04-30T19:47:48;9.10;77.20
35313;DHT22;21425;50.454;30.466;2023-04-30T19:50:14;9.50;77.60
35313;DHT22;21425;50.454;30.466;2023-04-30T19:52:39;9.20;77.50
35313;DHT22;21425;50.454;30.466;2023-04-30T19:59:59;9.10;76.00
35313;DHT22;21425;50.454;30.466;2023-04-30T20:04:52;8.80;77.10
35313;DHT22;21425;50.454;30.466;2023-04-30T20:09:43;10.50;77.80
35313;DHT22;21425;50.454;30.466;2023-04-30T20:12:09;10.90;78.50
35313;DHT22;21425;50.454;30.466;2023-04-30T20:14:35;10.50;78.00
35313;DHT22;21425;50.454;30.466;2023-04-30T20:17:00;10.40;77.30
35313;DHT22;21425;50.454;30.466;2023-04-30T20:19:26;10.10;77.90
35313;DHT22;21425;50.454;30.466;2023-04-30T20:21:52;10.70;77.60
35313;DHT22;21425;50.454;30.466;2023-04-30T20:24:18;10.90;78.00
35313;DHT22;21425;50.454;30.466;2023-04-30T20:26:45;10.40;78.90
35313;DHT22;21425;50.454;30.466;2023-04-30T20:29:11;9.50;79.80
35313;DHT22;21425;50.454;30.466;2023-04-30T20:31:37;9.80;81.10
35313;DHT22;21425;50.454;30.466;2023-04-30T20:34:02;10.60;82.70
35313;DHT22;21425;50.454;30.466;2023-04-30T20:38:57;8.60;84.70
35313;DHT22;21425;50.454;30.466;2023-04-30T20:41:25;8.70;89.50
35313;DHT22;21425;50.454;30.466;2023-04-30T20:43:51;8.70;91.10
35313;DHT22;21425;50.454;30.466;2023-04-30T20:46:18;10.60;93.10
35313;DHT22;21425;50.454;30.466;2023-04-30T20:51:09;10.10;97.40
35313;DHT22;21425;50.454;30.466;2023-04-30T20:53:35;9.30;98.00
35313;DHT22;21425;50.454;30.466;2023-04-30T20:56:00;9.70;98.10
35313;DHT22;21425;50.454;30.466;2023-04-30T20:58:26;10.20;98.90
35313;DHT22;21425;50.454;30.466;2023-04-30T21:03:17;9.10;97.30
35313;DHT22;21425;50.454;30.466;2023-04-30T21:05:43;9.50;95.20
35313;DHT22;21425;50.454;30.466;2023-04-30T21:08:09;8.50;94.40
35313;DHT22;21425;50.454;30.466;2023-04-30T21:15:26;10.20;94.40
35313;DHT22;21425;50.454;30.466;2023-04-30T21:17:55;9.50;94.20
35313;DHT22;21425;50.454;30.466;2023-04-30T21:20:20;10.30;94.50
35313;DHT22;21425;50.454;30.466;2023-04-30T21:22:45;9.40;94.80
35313;DHT22;21425;50.454;30.466;2023-04-30T21:25:11;8.60;95.10
35313;DHT22;21425;50.454;30.466;2023-04-30T21:27:36;10.40;95.30
35313;DHT22;21425;50.454;30.466;2023-04-30T21:37:20;9.70;94.00
35313;DHT22;21425;50.454;30.466;2023-04-30T21:39:46;9.00;95.90
35313;DHT22;21425;50.454;30.466;2023-04-30T21:42:11;8.70;96.20
35313;DHT22;21425;50.454;30.466;2023-04-30T21:47:04;9.10;96.80
35313;DHT22;21425;50.454;30.466;2023-04-30T21:49:33;8.20;97.40
35313;DHT22;21425;50.454;30.466;2023-04-30T21:51:59;8.30;96.50
35313;DHT22;21425;50.454;30.466;2023-04-30T21:54:25;5.60;95.20
35313;DHT22;21425;50.454;30.466;2023-04-30T21:56:51;5.50;95.10
35313;DHT22;21425;50.454;30.466;2023-04-30T21:59:16;8.40;96.10
35313;DHT22;21425;50.454;30.466;2023-04-30T22:01:42;8.70;96.60
35313;DHT22;21425;50.454;30.466;2023-04-30T22:04:07;8.80;95.90
35313;DHT22;21425;50.454;30.466;2023-04-30T22:06:33;9.20;95.30
35313;DHT22;21425;50.454;30.466;2023-04-30T22:08:58;9.70;95.20
35313;DHT22;21425;50.454;30.466;2023-04-30T22:11:24;10.20;94.90
35313;DHT22;21425;50.454;30.466;2023-04-30T22:13:50;10.60;94.30
35313;DHT22;21425;50.454;30.466;2023-04-30T22:16:15;10.70;94.10
35313;DHT22;21425;50.454;30.466;2023-04-30T22:23:33;10.30;97.90
35313;DHT22;21425;50.454;30.466;2023-04-30T22:25:58;10.00;98.70
35313;DHT22;21425;50.454;30.466;2023-04-30T22:30:55;10.50;99.90
35313;DHT22;21425;50.454;30.466;2023-04-30T22:33:21;10.50;99.90
35313;DHT22;21425;50.454;30.466;2023-04-30T22:35:47;9.40;99.90
35313;DHT22;21425;50.454;30.466;2023-04-30T22:40:38;9.60;99.90
35313;DHT22;21425;50.454;30.466;2023-04-30T22:43:04;9.40;99.90
35313;DHT22;21425;50.454;30.466;2023-04-30T22:45:30;10.20;99.90
35313;DHT22;21425;50.454;30.466;2023-04-30T22:47:55;8.60;99.90
35313;DHT22;21425;50.454;30.466;2023-04-30T22:50:21;10.20;99.90
35313;DHT22;21425;50.454;30.466;2023-04-30T22:52:47;10.30;99.90
35313;DHT22;21425;50.454;30.466;2023-04-30T22:55:12;9.50;99.90
35313;DHT22;21425;50.454;30.466;2023-04-30T22:57:38;9.70;99.90
35313;DHT22;21425;50.454;30.466;2023-04-30T23:00:03;10.20;99.90
35313;DHT22;21425;50.454;30.466;2023-04-30T23:02:29;9.90;99.90
35313;DHT22;21425;50.454;30.466;2023-04-30T23:07:21;10.30;99.90
35313;DHT22;21425;50.454;30.466;2023-04-30T23:09:46;5.70;99.90
35313;DHT22;21425;50.454;30.466;2023-04-30T23:12:12;10.50;99.90
35313;DHT22;21425;50.454;30.466;2023-04-30T23:14:37;9.90;99.90
35313;DHT22;21425;50.454;30.466;2023-04-30T23:17:02;9.30;99.90
35313;DHT22;21425;50.454;30.466;2023-04-30T23:19:29;9.10;99.90
35313;DHT22;21425;50.454;30.466;2023-04-30T23:24:21;8.90;99.90
35313;DHT22;21425;50.454;30.466;2023-04-30T23:26:46;5.70;99.90
35313;DHT22;21425;50.454;30.466;2023-04-30T23:29:12;9.80;99.90
35313;DHT22;21425;50.454;30.466;2023-04-30T23:31:38;9.90;99.90
35313;DHT22;21425;50.454;30.466;2023-04-30T23:34:04;8.90;99.90
35313;DHT22;21425;50.454;30.466;2023-04-30T23:38:55;8.80;99.90
35313;DHT22;21425;50.454;30.466;2023-04-30T23:41:21;10.30;99.90
35313;DHT22;21425;50.454;30.466;2023-04-30T23:43:46;10.70;99.90
35313;DHT22;21425;50.454;30.466;2023-04-30T23:48:41;10.50;99.90
35313;DHT22;21425;50.454;30.466;2023-04-30T23:53:33;10.80;98.20
